sensor_id;sensor_type;location;lat;lon;timestamp;P1;durP1;ratioP1;P2;durP2;ratioP2
64395;SDS011;50717;53.360;6.290;2022-09-03T00:00:10;5.47;;;1.77;;
64395;SDS011;50717;53.360;6.290;2022-09-03T00:02:46;2.45;;;1.60;;
64395;SDS011;50717;53.360;6.290;2022-09-03T00:10:42;4.50;;;1.90;;
64395;SDS011;50717;53.360;6.290;2022-09-03T00:15:43;5.45;;;2.00;;
64395;SDS011;50717;53.360;6.290;2022-09-03T00:20:45;2.58;;;2.13;;
64395;SDS011;50717;53.360;6.290;2022-09-03T00:23:18;4.03;;;1.80;;
64395;SDS011;50717;53.360;6.290;2022-09-03T00:31:15;2.00;;;1.77;;
64395;SDS011;50717;53.360;6.290;2022-09-03T00:33:48;3.95;;;2.20;;
64395;SDS011;50717;53.360;6.290;2022-09-03T00:36:24;3.72;;;1.92;;
64395;SDS011;50717;53.360;6.290;2022-09-03T00:38:57;7.47;;;2.13;;
64395;SDS011;50717;53.360;6.290;2022-09-03T00:52:51;4.78;;;2.20;;
64395;SDS011;50717;53.360;6.290;2022-09-03T00:58:20;4.15;;;2.00;;
64395;SDS011;50717;53.360;6.290;2022-09-03T01:00:59;4.07;;;2.53;;
64395;SDS011;50717;53.360;6.290;2022-09-03T01:11:37;3.67;;;2.25;;
64395;SDS011;50717;53.360;6.290;2022-09-03T01:22:53;3.85;;;2.35;;
64395;SDS011;50717;53.360;6.290;2022-09-03T01:30:44;3.88;;;2.28;;
64395;SDS011;50717;53.360;6.290;2022-09-03T01:33:27;3.10;;;2.20;;
64395;SDS011;50717;53.360;6.290;2022-09-03T01:36:13;3.00;;;2.13;;
64395;SDS011;50717;53.360;6.290;2022-09-03T01:38:49;5.47;;;2.05;;
64395;SDS011;50717;53.360;6.290;2022-09-03T01:53:03;1.90;;;1.50;;
64395;SDS011;50717;53.360;6.290;2022-09-03T02:01:29;3.25;;;1.50;;
64395;SDS011;50717;53.360;6.290;2022-09-03T02:03:59;4.05;;;1.60;;
64395;SDS011;50717;53.360;6.290;2022-09-03T02:06:26;6.95;;;1.80;;
64395;SDS011;50717;53.360;6.290;2022-09-03T02:08:53;4.35;;;1.50;;
64395;SDS011;50717;53.360;6.290;2022-09-03T02:11:19;3.17;;;1.70;;
64395;SDS011;50717;53.360;6.290;2022-09-03T02:16:14;2.63;;;1.48;;
64395;SDS011;50717;53.360;6.290;2022-09-03T02:18:49;1.95;;;1.40;;
64395;SDS011;50717;53.360;6.290;2022-09-03T02:21:17;3.45;;;1.58;;
64395;SDS011;50717;53.360;6.290;2022-09-03T02:23:45;3.78;;;1.75;;
64395;SDS011;50717;53.360;6.290;2022-09-03T02:26:12;6.03;;;1.65;;
64395;SDS011;50717;53.360;6.290;2022-09-03T02:28:42;2.78;;;1.30;;
64395;SDS011;50717;53.360;6.290;2022-09-03T02:31:08;1.50;;;1.40;;
64395;SDS011;50717;53.360;6.290;2022-09-03T02:33:36;2.67;;;1.55;;
64395;SDS011;50717;53.360;6.290;2022-09-03T02:36:07;2.83;;;1.45;;
64395;SDS011;50717;53.360;6.290;2022-09-03T02:38:35;2.15;;;1.65;;
64395;SDS011;50717;53.360;6.290;2022-09-03T02:41:01;2.78;;;1.50;;
64395;SDS011;50717;53.360;6.290;2022-09-03T02:46:22;4.10;;;1.70;;
64395;SDS011;50717;53.360;6.290;2022-09-03T02:48:52;2.22;;;1.52;;
64395;SDS011;50717;53.360;6.290;2022-09-03T02:51:18;5.03;;;1.60;;
64395;SDS011;50717;53.360;6.290;2022-09-03T02:53:44;2.83;;;1.40;;
64395;SDS011;50717;53.360;6.290;2022-09-03T02:56:10;3.42;;;1.50;;
64395;SDS011;50717;53.360;6.290;2022-09-03T02:58:36;2.90;;;1.70;;
64395;SDS011;50717;53.360;6.290;2022-09-03T03:01:02;2.45;;;1.75;;
64395;SDS011;50717;53.360;6.290;2022-09-03T03:03:28;3.70;;;1.48;;
64395;SDS011;50717;53.360;6.290;2022-09-03T03:05:55;2.38;;;1.70;;
64395;SDS011;50717;53.360;6.290;2022-09-03T03:08:27;2.45;;;1.40;;
64395;SDS011;50717;53.360;6.290;2022-09-03T03:10:56;5.68;;;1.80;;
64395;SDS011;50717;53.360;6.290;2022-09-03T03:13:27;3.00;;;1.40;;
64395;SDS011;50717;53.360;6.290;2022-09-03T03:16:00;2.35;;;1.60;;
64395;SDS011;50717;53.360;6.290;2022-09-03T03:18:27;4.97;;;1.60;;
64395;SDS011;50717;53.360;6.290;2022-09-03T03:20:54;4.50;;;1.85;;
64395;SDS011;50717;53.360;6.290;2022-09-03T03:23:20;4.90;;;1.95;;
64395;SDS011;50717;53.360;6.290;2022-09-03T03:25:45;5.18;;;1.73;;
64395;SDS011;50717;53.360;6.290;2022-09-03T03:30:38;4.70;;;1.70;;
64395;SDS011;50717;53.360;6.290;2022-09-03T03:33:06;2.28;;;1.65;;
64395;SDS011;50717;53.360;6.290;2022-09-03T03:35:33;2.03;;;1.80;;
64395;SDS011;50717;53.360;6.290;2022-09-03T03:37:59;2.00;;;1.65;;
64395;SDS011;50717;53.360;6.290;2022-09-03T03:40:25;3.25;;;1.85;;
64395;SDS011;50717;53.360;6.290;2022-09-03T03:42:51;2.05;;;1.58;;
64395;SDS011;50717;53.360;6.290;2022-09-03T03:47:43;2.50;;;1.90;;
64395;SDS011;50717;53.360;6.290;2022-09-03T03:50:09;2.20;;;1.70;;
64395;SDS011;50717;53.360;6.290;2022-09-03T03:52:35;3.05;;;1.65;;
64395;SDS011;50717;53.360;6.290;2022-09-03T03:57:28;1.98;;;1.75;;
64395;SDS011;50717;53.360;6.290;2022-09-03T03:59:55;2.88;;;1.88;;
64395;SDS011;50717;53.360;6.290;2022-09-03T04:02:20;2.35;;;2.00;;
64395;SDS011;50717;53.360;6.290;2022-09-03T04:04:46;3.83;;;1.77;;
64395;SDS011;50717;53.360;6.290;2022-09-03T04:09:37;4.82;;;1.90;;
64395;SDS011;50717;53.360;6.290;2022-09-03T04:12:03;7.32;;;1.90;;
64395;SDS011;50717;53.360;6.290;2022-09-03T04:14:32;5.05;;;1.70;;
64395;SDS011;50717;53.360;6.290;2022-09-03T04:16:59;4.72;;;2.05;;
64395;SDS011;50717;53.360;6.290;2022-09-03T04:19:27;2.58;;;1.75;;
64395;SDS011;50717;53.360;6.290;2022-09-03T04:21:54;3.05;;;1.83;;
64395;SDS011;50717;53.360;6.290;2022-09-03T04:24:20;4.43;;;1.73;;
64395;SDS011;50717;53.360;6.290;2022-09-03T04:26:46;2.85;;;1.88;;
64395;SDS011;50717;53.360;6.290;2022-09-03T04:29:14;3.75;;;1.65;;
64395;SDS011;50717;53.360;6.290;2022-09-03T04:31:39;2.75;;;1.60;;
64395;SDS011;50717;53.360;6.290;2022-09-03T04:34:25;4.18;;;1.58;;
64395;SDS011;50717;53.360;6.290;2022-09-03T04:36:51;4.10;;;1.70;;
64395;SDS011;50717;53.360;6.290;2022-09-03T04:39:16;2.22;;;1.92;;
64395;SDS011;50717;53.360;6.290;2022-09-03T04:41:42;3.20;;;1.80;;
64395;SDS011;50717;53.360;6.290;2022-09-03T04:44:08;4.15;;;1.92;;
64395;SDS011;50717;53.360;6.290;2022-09-03T04:46:34;2.63;;;1.77;;
64395;SDS011;50717;53.360;6.290;2022-09-03T04:51:26;2.75;;;2.17;;
64395;SDS011;50717;53.360;6.290;2022-09-03T04:53:54;3.08;;;1.83;;
64395;SDS011;50717;53.360;6.290;2022-09-03T04:56:25;5.60;;;1.80;;
64395;SDS011;50717;53.360;6.290;2022-09-03T04:58:56;3.28;;;2.03;;
64395;SDS011;50717;53.360;6.290;2022-09-03T05:01:24;2.10;;;1.90;;
64395;SDS011;50717;53.360;6.290;2022-09-03T05:03:51;2.95;;;2.00;;
64395;SDS011;50717;53.360;6.290;2022-09-03T05:06:17;2.20;;;2.00;;
64395;SDS011;50717;53.360;6.290;2022-09-03T05:08:47;2.25;;;1.80;;
64395;SDS011;50717;53.360;6.290;2022-09-03T05:11:13;2.88;;;2.30;;
64395;SDS011;50717;53.360;6.290;2022-09-03T05:13:39;3.83;;;2.25;;
64395;SDS011;50717;53.360;6.290;2022-09-03T05:18:32;3.42;;;2.08;;
64395;SDS011;50717;53.360;6.290;2022-09-03T05:21:02;2.35;;;1.95;;
64395;SDS011;50717;53.360;6.290;2022-09-03T05:23:30;2.25;;;2.05;;
64395;SDS011;50717;53.360;6.290;2022-09-03T05:25:57;4.95;;;2.10;;
64395;SDS011;50717;53.360;6.290;2022-09-03T05:28:24;4.10;;;2.10;;
64395;SDS011;50717;53.360;6.290;2022-09-03T05:30:59;4.65;;;2.30;;
64395;SDS011;50717;53.360;6.290;2022-09-03T05:33:25;5.97;;;2.28;;
64395;SDS011;50717;53.360;6.290;2022-09-03T05:35:52;2.70;;;2.00;;
64395;SDS011;50717;53.360;6.290;2022-09-03T05:38:19;3.28;;;2.22;;
64395;SDS011;50717;53.360;6.290;2022-09-03T05:40:45;3.63;;;2.08;;
64395;SDS011;50717;53.360;6.290;2022-09-03T05:45:36;3.85;;;2.00;;
64395;SDS011;50717;53.360;6.290;2022-09-03T05:48:02;4.15;;;1.98;;
64395;SDS011;50717;53.360;6.290;2022-09-03T05:52:53;2.70;;;2.03;;
64395;SDS011;50717;53.360;6.290;2022-09-03T05:55:18;2.65;;;1.80;;
64395;SDS011;50717;53.360;6.290;2022-09-03T06:00:15;2.30;;;2.10;;
64395;SDS011;50717;53.360;6.290;2022-09-03T06:02:48;2.92;;;2.15;;
64395;SDS011;50717;53.360;6.290;2022-09-03T06:05:15;3.63;;;1.80;;
64395;SDS011;50717;53.360;6.290;2022-09-03T06:07:43;4.57;;;2.15;;
64395;SDS011;50717;53.360;6.290;2022-09-03T06:10:09;3.83;;;2.00;;
64395;SDS011;50717;53.360;6.290;2022-09-03T06:12:36;4.28;;;2.00;;
64395;SDS011;50717;53.360;6.290;2022-09-03T06:17:29;2.15;;;1.95;;
64395;SDS011;50717;53.360;6.290;2022-09-03T06:19:55;3.85;;;2.08;;
64395;SDS011;50717;53.360;6.290;2022-09-03T06:24:49;3.33;;;2.15;;
64395;SDS011;50717;53.360;6.290;2022-09-03T06:27:14;4.82;;;2.00;;
64395;SDS011;50717;53.360;6.290;2022-09-03T06:32:05;3.05;;;1.83;;
64395;SDS011;50717;53.360;6.290;2022-09-03T06:34:31;2.42;;;1.80;;
64395;SDS011;50717;53.360;6.290;2022-09-03T06:39:23;7.47;;;1.83;;
64395;SDS011;50717;53.360;6.290;2022-09-03T06:41:50;2.95;;;1.88;;
64395;SDS011;50717;53.360;6.290;2022-09-03T06:44:17;4.78;;;2.08;;
64395;SDS011;50717;53.360;6.290;2022-09-03T06:46:43;10.32;;;2.80;;
64395;SDS011;50717;53.360;6.290;2022-09-03T06:49:09;3.88;;;2.00;;
64395;SDS011;50717;53.360;6.290;2022-09-03T06:51:35;2.33;;;1.85;;
64395;SDS011;50717;53.360;6.290;2022-09-03T06:54:06;3.90;;;2.00;;
64395;SDS011;50717;53.360;6.290;2022-09-03T06:56:34;3.65;;;2.08;;
64395;SDS011;50717;53.360;6.290;2022-09-03T06:59:08;4.25;;;1.85;;
64395;SDS011;50717;53.360;6.290;2022-09-03T07:01:38;6.57;;;1.77;;
64395;SDS011;50717;53.360;6.290;2022-09-03T07:04:05;5.90;;;2.45;;
64395;SDS011;50717;53.360;6.290;2022-09-03T07:06:33;4.93;;;2.33;;
64395;SDS011;50717;53.360;6.290;2022-09-03T07:09:07;3.20;;;1.90;;
64395;SDS011;50717;53.360;6.290;2022-09-03T07:11:34;3.42;;;1.77;;
64395;SDS011;50717;53.360;6.290;2022-09-03T07:14:01;4.13;;;2.03;;
64395;SDS011;50717;53.360;6.290;2022-09-03T07:18:56;4.07;;;2.20;;
64395;SDS011;50717;53.360;6.290;2022-09-03T07:26:17;3.50;;;1.80;;
64395;SDS011;50717;53.360;6.290;2022-09-03T07:28:45;4.78;;;1.73;;
64395;SDS011;50717;53.360;6.290;2022-09-03T07:31:17;3.53;;;1.80;;
64395;SDS011;50717;53.360;6.290;2022-09-03T07:33:46;6.55;;;1.80;;
64395;SDS011;50717;53.360;6.290;2022-09-03T07:38:41;3.00;;;2.15;;
64395;SDS011;50717;53.360;6.290;2022-09-03T07:41:09;3.70;;;1.75;;
64395;SDS011;50717;53.360;6.290;2022-09-03T07:43:40;5.93;;;2.63;;
64395;SDS011;50717;53.360;6.290;2022-09-03T07:46:14;3.08;;;1.80;;
64395;SDS011;50717;53.360;6.290;2022-09-03T07:48:50;2.97;;;1.92;;
64395;SDS011;50717;53.360;6.290;2022-09-03T07:51:18;2.20;;;1.90;;
64395;SDS011;50717;53.360;6.290;2022-09-03T07:53:45;3.85;;;1.92;;
64395;SDS011;50717;53.360;6.290;2022-09-03T07:56:12;4.72;;;1.73;;
64395;SDS011;50717;53.360;6.290;2022-09-03T07:58:39;3.55;;;1.80;;
64395;SDS011;50717;53.360;6.290;2022-09-03T08:01:13;3.88;;;1.70;;
64395;SDS011;50717;53.360;6.290;2022-09-03T08:03:44;2.33;;;1.95;;
64395;SDS011;50717;53.360;6.290;2022-09-03T08:06:11;6.43;;;1.90;;
64395;SDS011;50717;53.360;6.290;2022-09-03T08:08:38;3.60;;;1.70;;
64395;SDS011;50717;53.360;6.290;2022-09-03T08:13:38;6.50;;;2.03;;
64395;SDS011;50717;53.360;6.290;2022-09-03T08:16:08;6.22;;;1.90;;
64395;SDS011;50717;53.360;6.290;2022-09-03T08:18:35;3.33;;;1.73;;
64395;SDS011;50717;53.360;6.290;2022-09-03T08:21:07;3.92;;;1.77;;
64395;SDS011;50717;53.360;6.290;2022-09-03T08:23:38;6.50;;;1.75;;
64395;SDS011;50717;53.360;6.290;2022-09-03T08:26:05;4.32;;;1.60;;
64395;SDS011;50717;53.360;6.290;2022-09-03T08:28:31;4.38;;;1.50;;
64395;SDS011;50717;53.360;6.290;2022-09-03T08:31:03;3.45;;;1.70;;
64395;SDS011;50717;53.360;6.290;2022-09-03T08:33:39;2.83;;;1.70;;
64395;SDS011;50717;53.360;6.290;2022-09-03T08:36:11;4.47;;;1.92;;
64395;SDS011;50717;53.360;6.290;2022-09-03T08:38:39;3.10;;;1.42;;
64395;SDS011;50717;53.360;6.290;2022-09-03T08:41:14;2.75;;;1.60;;
64395;SDS011;50717;53.360;6.290;2022-09-03T08:43:53;7.03;;;1.73;;
64395;SDS011;50717;53.360;6.290;2022-09-03T08:46:23;6.75;;;1.50;;
64395;SDS011;50717;53.360;6.290;2022-09-03T08:48:56;7.97;;;1.67;;
64395;SDS011;50717;53.360;6.290;2022-09-03T08:51:23;4.05;;;1.50;;
64395;SDS011;50717;53.360;6.290;2022-09-03T08:53:53;5.18;;;1.90;;
64395;SDS011;50717;53.360;6.290;2022-09-03T08:56:28;4.97;;;1.63;;
64395;SDS011;50717;53.360;6.290;2022-09-03T08:58:55;8.68;;;1.70;;
64395;SDS011;50717;53.360;6.290;2022-09-03T09:02:05;7.07;;;1.58;;
64395;SDS011;50717;53.360;6.290;2022-09-03T09:06:45;4.63;;;1.45;;
64395;SDS011;50717;53.360;6.290;2022-09-03T09:17:40;2.05;;;1.38;;
64395;SDS011;50717;53.360;6.290;2022-09-03T09:20:48;7.22;;;1.80;;
64395;SDS011;50717;53.360;6.290;2022-09-03T09:23:35;6.88;;;1.50;;
64395;SDS011;50717;53.360;6.290;2022-09-03T09:26:08;4.20;;;1.65;;
64395;SDS011;50717;53.360;6.290;2022-09-03T09:28:37;3.58;;;1.40;;
64395;SDS011;50717;53.360;6.290;2022-09-03T09:31:04;5.70;;;1.65;;
64395;SDS011;50717;53.360;6.290;2022-09-03T09:33:34;2.88;;;1.30;;
64395;SDS011;50717;53.360;6.290;2022-09-03T09:36:04;2.33;;;1.40;;
64395;SDS011;50717;53.360;6.290;2022-09-03T09:38:33;4.10;;;1.60;;
64395;SDS011;50717;53.360;6.290;2022-09-03T09:41:11;4.22;;;1.40;;
64395;SDS011;50717;53.360;6.290;2022-09-03T09:43:41;4.22;;;1.50;;
64395;SDS011;50717;53.360;6.290;2022-09-03T09:46:11;1.60;;;1.45;;
64395;SDS011;50717;53.360;6.290;2022-09-03T09:48:38;3.38;;;1.55;;
64395;SDS011;50717;53.360;6.290;2022-09-03T09:51:13;5.05;;;1.55;;
64395;SDS011;50717;53.360;6.290;2022-09-03T09:54:14;3.42;;;1.48;;
64395;SDS011;50717;53.360;6.290;2022-09-03T09:56:46;4.40;;;1.70;;
64395;SDS011;50717;53.360;6.290;2022-09-03T09:59:24;2.92;;;1.40;;
64395;SDS011;50717;53.360;6.290;2022-09-03T10:01:49;3.47;;;1.58;;
64395;SDS011;50717;53.360;6.290;2022-09-03T10:04:23;8.38;;;1.40;;
64395;SDS011;50717;53.360;6.290;2022-09-03T10:06:53;5.93;;;1.83;;
64395;SDS011;50717;53.360;6.290;2022-09-03T10:12:07;5.40;;;1.80;;
64395;SDS011;50717;53.360;6.290;2022-09-03T10:17:28;1.40;;;1.30;;
64395;SDS011;50717;53.360;6.290;2022-09-03T10:20:11;5.22;;;1.40;;
64395;SDS011;50717;53.360;6.290;2022-09-03T10:28:34;5.78;;;1.20;;
64395;SDS011;50717;53.360;6.290;2022-09-03T10:33:58;2.92;;;1.63;;
64395;SDS011;50717;53.360;6.290;2022-09-03T10:36:39;10.52;;;1.60;;
64395;SDS011;50717;53.360;6.290;2022-09-03T10:44:49;5.50;;;1.40;;
64395;SDS011;50717;53.360;6.290;2022-09-03T10:52:50;3.35;;;1.42;;
64395;SDS011;50717;53.360;6.290;2022-09-03T11:00:42;2.88;;;1.35;;
64395;SDS011;50717;53.360;6.290;2022-09-03T11:08:56;7.53;;;1.73;;
64395;SDS011;50717;53.360;6.290;2022-09-03T11:16:34;5.40;;;1.50;;
64395;SDS011;50717;53.360;6.290;2022-09-03T11:19:07;3.03;;;1.30;;
64395;SDS011;50717;53.360;6.290;2022-09-03T11:21:37;3.00;;;1.40;;
64395;SDS011;50717;53.360;6.290;2022-09-03T11:24:09;1.40;;;1.20;;
64395;SDS011;50717;53.360;6.290;2022-09-03T11:26:39;4.40;;;1.40;;
64395;SDS011;50717;53.360;6.290;2022-09-03T11:29:17;8.05;;;1.60;;
64395;SDS011;50717;53.360;6.290;2022-09-03T11:34:49;3.63;;;1.35;;
64395;SDS011;50717;53.360;6.290;2022-09-03T11:37:22;6.30;;;1.10;;
64395;SDS011;50717;53.360;6.290;2022-09-03T11:39:56;5.25;;;1.40;;
64395;SDS011;50717;53.360;6.290;2022-09-03T11:42:43;1.63;;;1.17;;
64395;SDS011;50717;53.360;6.290;2022-09-03T11:47:45;8.18;;;1.60;;
64395;SDS011;50717;53.360;6.290;2022-09-03T11:52:53;3.30;;;1.42;;
64395;SDS011;50717;53.360;6.290;2022-09-03T11:55:31;9.88;;;1.30;;
64395;SDS011;50717;53.360;6.290;2022-09-03T11:58:32;5.00;;;1.40;;
64395;SDS011;50717;53.360;6.290;2022-09-03T12:00:59;3.30;;;1.25;;
64395;SDS011;50717;53.360;6.290;2022-09-03T12:03:50;3.97;;;1.20;;
64395;SDS011;50717;53.360;6.290;2022-09-03T12:12:35;3.13;;;1.13;;
64395;SDS011;50717;53.360;6.290;2022-09-03T12:15:25;7.68;;;1.25;;
64395;SDS011;50717;53.360;6.290;2022-09-03T12:18:16;4.80;;;1.20;;
64395;SDS011;50717;53.360;6.290;2022-09-03T12:23:30;6.43;;;1.25;;
64395;SDS011;50717;53.360;6.290;2022-09-03T12:25:58;2.80;;;1.15;;
64395;SDS011;50717;53.360;6.290;2022-09-03T12:28:29;3.40;;;1.20;;
64395;SDS011;50717;53.360;6.290;2022-09-03T12:31:04;5.38;;;1.38;;
64395;SDS011;50717;53.360;6.290;2022-09-03T12:33:45;2.92;;;1.20;;
64395;SDS011;50717;53.360;6.290;2022-09-03T12:36:12;4.38;;;1.10;;
64395;SDS011;50717;53.360;6.290;2022-09-03T12:38:38;7.82;;;1.40;;
64395;SDS011;50717;53.360;6.290;2022-09-03T12:41:04;1.85;;;1.50;;
64395;SDS011;50717;53.360;6.290;2022-09-03T12:43:29;3.20;;;1.13;;
64395;SDS011;50717;53.360;6.290;2022-09-03T12:45:55;2.58;;;1.30;;
64395;SDS011;50717;53.360;6.290;2022-09-03T12:48:21;2.25;;;1.00;;
64395;SDS011;50717;53.360;6.290;2022-09-03T12:50:48;2.50;;;1.00;;
64395;SDS011;50717;53.360;6.290;2022-09-03T12:53:25;2.65;;;1.23;;
64395;SDS011;50717;53.360;6.290;2022-09-03T12:55:54;4.50;;;1.08;;
64395;SDS011;50717;53.360;6.290;2022-09-03T12:58:23;5.25;;;1.15;;
64395;SDS011;50717;53.360;6.290;2022-09-03T13:00:58;6.25;;;1.23;;
64395;SDS011;50717;53.360;6.290;2022-09-03T13:03:48;2.17;;;1.10;;
64395;SDS011;50717;53.360;6.290;2022-09-03T13:06:27;4.20;;;1.30;;
64395;SDS011;50717;53.360;6.290;2022-09-03T13:08:58;15.95;;;1.60;;
64395;SDS011;50717;53.360;6.290;2022-09-03T13:11:26;3.80;;;1.23;;
64395;SDS011;50717;53.360;6.290;2022-09-03T13:14:03;2.22;;;1.27;;
64395;SDS011;50717;53.360;6.290;2022-09-03T13:19:21;4.68;;;1.30;;
64395;SDS011;50717;53.360;6.290;2022-09-03T13:30:15;2.53;;;1.10;;
64395;SDS011;50717;53.360;6.290;2022-09-03T13:33:04;2.20;;;1.10;;
64395;SDS011;50717;53.360;6.290;2022-09-03T13:35:58;1.48;;;1.00;;
64395;SDS011;50717;53.360;6.290;2022-09-03T13:44:17;4.00;;;1.38;;
64395;SDS011;50717;53.360;6.290;2022-09-03T13:49:39;3.28;;;1.00;;
64395;SDS011;50717;53.360;6.290;2022-09-03T13:52:33;4.35;;;1.63;;
64395;SDS011;50717;53.360;6.290;2022-09-03T13:55:07;9.10;;;1.30;;
64395;SDS011;50717;53.360;6.290;2022-09-03T13:57:52;3.22;;;1.13;;
64395;SDS011;50717;53.360;6.290;2022-09-03T14:00:42;4.63;;;1.10;;
64395;SDS011;50717;53.360;6.290;2022-09-03T14:05:48;4.57;;;1.20;;
64395;SDS011;50717;53.360;6.290;2022-09-03T14:11:22;1.77;;;1.15;;
64395;SDS011;50717;53.360;6.290;2022-09-03T14:19:10;3.67;;;1.10;;
64395;SDS011;50717;53.360;6.290;2022-09-03T14:21:43;2.13;;;0.90;;
64395;SDS011;50717;53.360;6.290;2022-09-03T14:24:39;6.25;;;1.10;;
64395;SDS011;50717;53.360;6.290;2022-09-03T14:27:08;2.58;;;1.10;;
64395;SDS011;50717;53.360;6.290;2022-09-03T14:29:35;2.05;;;1.10;;
64395;SDS011;50717;53.360;6.290;2022-09-03T14:34:59;2.67;;;1.00;;
64395;SDS011;50717;53.360;6.290;2022-09-03T14:37:38;1.55;;;1.05;;
64395;SDS011;50717;53.360;6.290;2022-09-03T14:46:31;3.85;;;1.13;;
64395;SDS011;50717;53.360;6.290;2022-09-03T14:52:05;1.87;;;1.00;;
64395;SDS011;50717;53.360;6.290;2022-09-03T14:54:55;2.72;;;1.10;;
64395;SDS011;50717;53.360;6.290;2022-09-03T15:06:27;2.55;;;1.08;;
64395;SDS011;50717;53.360;6.290;2022-09-03T15:09:15;2.33;;;0.95;;
64395;SDS011;50717;53.360;6.290;2022-09-03T15:11:45;1.98;;;1.00;;
64395;SDS011;50717;53.360;6.290;2022-09-03T15:14:23;2.95;;;0.98;;
64395;SDS011;50717;53.360;6.290;2022-09-03T15:17:19;4.70;;;1.00;;
64395;SDS011;50717;53.360;6.290;2022-09-03T15:20:02;6.22;;;1.10;;
64395;SDS011;50717;53.360;6.290;2022-09-03T15:28:37;3.22;;;1.10;;
64395;SDS011;50717;53.360;6.290;2022-09-03T15:34:02;2.97;;;1.20;;
64395;SDS011;50717;53.360;6.290;2022-09-03T15:36:39;4.15;;;1.35;;
64395;SDS011;50717;53.360;6.290;2022-09-03T15:39:27;2.95;;;1.10;;
64395;SDS011;50717;53.360;6.290;2022-09-03T15:42:03;5.45;;;1.00;;
64395;SDS011;50717;53.360;6.290;2022-09-03T15:44:41;3.05;;;1.20;;
64395;SDS011;50717;53.360;6.290;2022-09-03T15:47:20;4.93;;;1.13;;
64395;SDS011;50717;53.360;6.290;2022-09-03T15:52:52;2.33;;;1.00;;
64395;SDS011;50717;53.360;6.290;2022-09-03T15:55:37;3.00;;;1.20;;
64395;SDS011;50717;53.360;6.290;2022-09-03T16:00:40;2.28;;;1.17;;
64395;SDS011;50717;53.360;6.290;2022-09-03T16:03:18;2.33;;;1.15;;
64395;SDS011;50717;53.360;6.290;2022-09-03T16:05:59;3.75;;;1.90;;
64395;SDS011;50717;53.360;6.290;2022-09-03T16:08:42;7.03;;;1.85;;
64395;SDS011;50717;53.360;6.290;2022-09-03T16:14:11;4.95;;;1.25;;
64395;SDS011;50717;53.360;6.290;2022-09-03T16:19:16;5.75;;;1.30;;
64395;SDS011;50717;53.360;6.290;2022-09-03T16:22:06;4.25;;;1.20;;
64395;SDS011;50717;53.360;6.290;2022-09-03T16:25:00;3.30;;;1.50;;
64395;SDS011;50717;53.360;6.290;2022-09-03T16:30:13;4.90;;;1.40;;
64395;SDS011;50717;53.360;6.290;2022-09-03T16:39:11;5.25;;;1.40;;
64395;SDS011;50717;53.360;6.290;2022-09-03T16:41:35;3.72;;;1.33;;
64395;SDS011;50717;53.360;6.290;2022-09-03T16:44:26;4.88;;;1.50;;
64395;SDS011;50717;53.360;6.290;2022-09-03T16:55:00;4.78;;;1.20;;
64395;SDS011;50717;53.360;6.290;2022-09-03T16:57:53;1.83;;;1.17;;
64395;SDS011;50717;53.360;6.290;2022-09-03T17:00:35;5.13;;;1.50;;
64395;SDS011;50717;53.360;6.290;2022-09-03T17:09:13;5.35;;;1.40;;
64395;SDS011;50717;53.360;6.290;2022-09-03T17:19:47;2.22;;;1.35;;
64395;SDS011;50717;53.360;6.290;2022-09-03T17:25:21;2.33;;;1.50;;
64395;SDS011;50717;53.360;6.290;2022-09-03T17:36:24;3.08;;;1.40;;
64395;SDS011;50717;53.360;6.290;2022-09-03T17:41:45;4.53;;;1.42;;
64395;SDS011;50717;53.360;6.290;2022-09-03T17:50:18;2.05;;;1.27;;
64395;SDS011;50717;53.360;6.290;2022-09-03T17:58:52;3.25;;;1.30;;
64395;SDS011;50717;53.360;6.290;2022-09-03T18:01:27;2.38;;;1.40;;
64395;SDS011;50717;53.360;6.290;2022-09-03T18:04:14;2.38;;;1.60;;
64395;SDS011;50717;53.360;6.290;2022-09-03T18:06:56;3.92;;;1.60;;
64395;SDS011;50717;53.360;6.290;2022-09-03T18:09:45;3.72;;;1.52;;
64395;SDS011;50717;53.360;6.290;2022-09-03T18:12:33;2.95;;;1.83;;
64395;SDS011;50717;53.360;6.290;2022-09-03T18:15:21;2.03;;;1.70;;
64395;SDS011;50717;53.360;6.290;2022-09-03T18:18:03;5.50;;;2.05;;
64395;SDS011;50717;53.360;6.290;2022-09-03T18:20:49;6.63;;;1.83;;
64395;SDS011;50717;53.360;6.290;2022-09-03T18:23:49;6.38;;;1.77;;
64395;SDS011;50717;53.360;6.290;2022-09-03T18:27:05;7.47;;;2.95;;
64395;SDS011;50717;53.360;6.290;2022-09-03T18:30:02;8.52;;;2.65;;
64395;SDS011;50717;53.360;6.290;2022-09-03T18:32:49;4.07;;;2.20;;
64395;SDS011;50717;53.360;6.290;2022-09-03T18:35:33;5.65;;;2.33;;
64395;SDS011;50717;53.360;6.290;2022-09-03T18:38:21;4.68;;;2.25;;
64395;SDS011;50717;53.360;6.290;2022-09-03T18:42:13;8.10;;;1.88;;
64395;SDS011;50717;53.360;6.290;2022-09-03T18:50:32;3.15;;;1.60;;
64395;SDS011;50717;53.360;6.290;2022-09-03T19:02:46;3.83;;;1.40;;
64395;SDS011;50717;53.360;6.290;2022-09-03T19:15:12;2.63;;;1.60;;
64395;SDS011;50717;53.360;6.290;2022-09-03T19:24:13;5.47;;;1.60;;
64395;SDS011;50717;53.360;6.290;2022-09-03T19:26:59;3.33;;;1.77;;
64395;SDS011;50717;53.360;6.290;2022-09-03T19:30:13;5.10;;;1.70;;
64395;SDS011;50717;53.360;6.290;2022-09-03T19:33:12;7.10;;;1.50;;
64395;SDS011;50717;53.360;6.290;2022-09-03T19:39:12;5.97;;;1.60;;
64395;SDS011;50717;53.360;6.290;2022-09-03T19:45:34;2.28;;;1.50;;
64395;SDS011;50717;53.360;6.290;2022-09-03T19:48:37;1.63;;;1.27;;
64395;SDS011;50717;53.360;6.290;2022-09-03T19:51:29;8.65;;;2.13;;
64395;SDS011;50717;53.360;6.290;2022-09-03T19:54:19;2.17;;;1.60;;
64395;SDS011;50717;53.360;6.290;2022-09-03T19:57:07;3.53;;;1.40;;
64395;SDS011;50717;53.360;6.290;2022-09-03T19:59:55;2.78;;;1.60;;
64395;SDS011;50717;53.360;6.290;2022-09-03T20:02:41;6.75;;;1.58;;
64395;SDS011;50717;53.360;6.290;2022-09-03T20:05:30;4.10;;;1.52;;
64395;SDS011;50717;53.360;6.290;2022-09-03T20:08:16;2.30;;;1.80;;
64395;SDS011;50717;53.360;6.290;2022-09-03T20:11:02;2.28;;;1.40;;
64395;SDS011;50717;53.360;6.290;2022-09-03T20:13:38;2.60;;;1.40;;
64395;SDS011;50717;53.360;6.290;2022-09-03T20:32:10;4.40;;;1.63;;
64395;SDS011;50717;53.360;6.290;2022-09-03T20:37:30;6.10;;;1.65;;
64395;SDS011;50717;53.360;6.290;2022-09-03T20:48:22;3.35;;;1.70;;
64395;SDS011;50717;53.360;6.290;2022-09-03T20:51:04;3.85;;;1.50;;
64395;SDS011;50717;53.360;6.290;2022-09-03T21:01:50;2.90;;;1.45;;
64395;SDS011;50717;53.360;6.290;2022-09-03T21:06:54;2.45;;;1.42;;
64395;SDS011;50717;53.360;6.290;2022-09-03T21:09:39;6.07;;;1.58;;
64395;SDS011;50717;53.360;6.290;2022-09-03T21:20:16;5.15;;;1.40;;
64395;SDS011;50717;53.360;6.290;2022-09-03T21:25:19;6.50;;;1.67;;
64395;SDS011;50717;53.360;6.290;2022-09-03T21:27:51;4.85;;;1.50;;
64395;SDS011;50717;53.360;6.290;2022-09-03T21:30:23;2.50;;;1.60;;
64395;SDS011;50717;53.360;6.290;2022-09-03T21:32:50;2.42;;;1.50;;
64395;SDS011;50717;53.360;6.290;2022-09-03T21:35:31;3.47;;;1.55;;
64395;SDS011;50717;53.360;6.290;2022-09-03T21:38:20;2.53;;;1.60;;
64395;SDS011;50717;53.360;6.290;2022-09-03T21:40:49;3.47;;;1.50;;
64395;SDS011;50717;53.360;6.290;2022-09-03T21:46:12;3.95;;;2.05;;
64395;SDS011;50717;53.360;6.290;2022-09-03T21:48:46;3.05;;;1.60;;
64395;SDS011;50717;53.360;6.290;2022-09-03T21:51:25;3.53;;;1.40;;
64395;SDS011;50717;53.360;6.290;2022-09-03T21:54:29;4.72;;;2.10;;
64395;SDS011;50717;53.360;6.290;2022-09-03T21:56:56;3.70;;;1.77;;
64395;SDS011;50717;53.360;6.290;2022-09-03T21:59:37;5.10;;;1.50;;
64395;SDS011;50717;53.360;6.290;2022-09-03T22:02:28;4.80;;;1.40;;
64395;SDS011;50717;53.360;6.290;2022-09-03T22:04:56;11.50;;;2.05;;
64395;SDS011;50717;53.360;6.290;2022-09-03T22:15:33;3.00;;;1.52;;
64395;SDS011;50717;53.360;6.290;2022-09-03T22:18:08;3.45;;;1.45;;
64395;SDS011;50717;53.360;6.290;2022-09-03T22:20:56;20.67;;;2.30;;
64395;SDS011;50717;53.360;6.290;2022-09-03T22:26:54;2.63;;;1.65;;